sensor_id;sensor_type;location;lat;lon;timestamp;temperature;humidity
8565;DHT22;4320;51.498;6.556;2022-11-02T00:01:41;15.20;1.00
8565;DHT22;4320;51.498;6.556;2022-11-02T00:04:08;15.20;1.00
8565;DHT22;4320;51.498;6.556;2022-11-02T00:06:33;15.30;1.00
8565;DHT22;4320;51.498;6.556;2022-11-02T00:08:59;15.30;1.00
8565;DHT22;4320;51.498;6.556;2022-11-02T00:11:25;15.30;1.00
8565;DHT22;4320;51.498;6.556;2022-11-02T00:13:52;15.30;1.00
8565;DHT22;4320;51.498;6.556;2022-11-02T00:16:18;15.30;1.00
8565;DHT22;4320;51.498;6.556;2022-11-02T00:18:46;15.30;1.00
8565;DHT22;4320;51.498;6.556;2022-11-02T00:21:15;15.30;1.00
8565;DHT22;4320;51.498;6.556;2022-11-02T00:23:42;15.30;1.00
8565;DHT22;4320;51.498;6.556;2022-11-02T00:26:08;15.30;1.00
8565;DHT22;4320;51.498;6.556;2022-11-02T00:28:34;15.30;1.00
8565;DHT22;4320;51.498;6.556;2022-11-02T00:31:00;15.30;1.00
8565;DHT22;4320;51.498;6.556;2022-11-02T00:33:26;15.30;1.00
8565;DHT22;4320;51.498;6.556;2022-11-02T00:35:55;15.20;1.00
8565;DHT22;4320;51.498;6.556;2022-11-02T00:38:21;15.30;1.00
8565;DHT22;4320;51.498;6.556;2022-11-02T00:40:46;15.20;1.00
8565;DHT22;4320;51.498;6.556;2022-11-02T00:43:12;15.30;1.00
8565;DHT22;4320;51.498;6.556;2022-11-02T00:45:38;15.20;1.00
8565;DHT22;4320;51.498;6.556;2022-11-02T00:48:04;15.30;1.00
8565;DHT22;4320;51.498;6.556;2022-11-02T00:50:30;15.30;1.00
8565;DHT22;4320;51.498;6.556;2022-11-02T00:52:56;15.30;1.00
8565;DHT22;4320;51.498;6.556;2022-11-02T00:55:21;15.30;1.00
8565;DHT22;4320;51.498;6.556;2022-11-02T00:57:47;15.20;1.00
8565;DHT22;4320;51.498;6.556;2022-11-02T01:00:14;15.30;1.00
8565;DHT22;4320;51.498;6.556;2022-11-02T01:02:40;15.30;1.00
8565;DHT22;4320;51.498;6.556;2022-11-02T01:05:07;15.20;1.00
8565;DHT22;4320;51.498;6.556;2022-11-02T01:07:33;15.20;1.00
8565;DHT22;4320;51.498;6.556;2022-11-02T01:09:59;15.20;1.00
8565;DHT22;4320;51.498;6.556;2022-11-02T01:12:25;15.30;1.00
8565;DHT22;4320;51.498;6.556;2022-11-02T01:14:50;15.30;1.00
8565;DHT22;4320;51.498;6.556;2022-11-02T01:17:17;15.30;1.00
8565;DHT22;4320;51.498;6.556;2022-11-02T01:19:43;15.30;1.00
8565;DHT22;4320;51.498;6.556;2022-11-02T01:22:09;15.20;1.00
8565;DHT22;4320;51.498;6.556;2022-11-02T01:24:35;15.20;1.00
8565;DHT22;4320;51.498;6.556;2022-11-02T01:27:01;15.20;1.00
8565;DHT22;4320;51.498;6.556;2022-11-02T01:29:26;15.10;1.00
8565;DHT22;4320;51.498;6.556;2022-11-02T01:31:53;15.10;1.00
8565;DHT22;4320;51.498;6.556;2022-11-02T01:34:21;15.10;1.00
8565;DHT22;4320;51.498;6.556;2022-11-02T01:36:47;15.00;1.00
8565;DHT22;4320;51.498;6.556;2022-11-02T01:39:13;15.00;1.00
8565;DHT22;4320;51.498;6.556;2022-11-02T01:41:39;15.00;1.00
8565;DHT22;4320;51.498;6.556;2022-11-02T01:44:34;15.00;1.00
8565;DHT22;4320;51.498;6.556;2022-11-02T01:47:06;15.00;1.00
8565;DHT22;4320;51.498;6.556;2022-11-02T01:49:35;15.00;1.00
8565;DHT22;4320;51.498;6.556;2022-11-02T01:52:07;14.90;1.00
8565;DHT22;4320;51.498;6.556;2022-11-02T01:54:46;14.90;1.00
8565;DHT22;4320;51.498;6.556;2022-11-02T01:57:16;14.90;1.00
8565;DHT22;4320;51.498;6.556;2022-11-02T01:59:57;14.90;1.00
8565;DHT22;4320;51.498;6.556;2022-11-02T02:02:26;14.90;1.00
8565;DHT22;4320;51.498;6.556;2022-11-02T02:04:56;14.90;1.00
8565;DHT22;4320;51.498;6.556;2022-11-02T02:07:24;14.90;1.00
8565;DHT22;4320;51.498;6.556;2022-11-02T02:09:51;14.90;1.00
8565;DHT22;4320;51.498;6.556;2022-11-02T02:12:19;14.90;1.00
8565;DHT22;4320;51.498;6.556;2022-11-02T02:14:45;14.90;1.00
8565;DHT22;4320;51.498;6.556;2022-11-02T02:17:33;14.80;1.00
8565;DHT22;4320;51.498;6.556;2022-11-02T02:25:51;14.80;1.00
8565;DHT22;4320;51.498;6.556;2022-11-02T02:28:55;14.70;1.00
8565;DHT22;4320;51.498;6.556;2022-11-02T02:37:59;14.70;1.00
8565;DHT22;4320;51.498;6.556;2022-11-02T02:40:01;14.60;1.00
8565;DHT22;4320;51.498;6.556;2022-11-02T02:43:02;14.60;1.00
8565;DHT22;4320;51.498;6.556;2022-11-02T02:45:35;14.60;1.00
8565;DHT22;4320;51.498;6.556;2022-11-02T02:48:11;14.60;1.00
8565;DHT22;4320;51.498;6.556;2022-11-02T02:51:01;14.50;1.00
8565;DHT22;4320;51.498;6.556;2022-11-02T02:53:40;14.50;1.00
8565;DHT22;4320;51.498;6.556;2022-11-02T02:56:08;14.40;1.00
8565;DHT22;4320;51.498;6.556;2022-11-02T02:58:49;14.40;1.00
8565;DHT22;4320;51.498;6.556;2022-11-02T03:01:17;14.40;1.00
8565;DHT22;4320;51.498;6.556;2022-11-02T03:03:44;14.40;1.00
8565;DHT22;4320;51.498;6.556;2022-11-02T03:06:29;14.40;1.00
8565;DHT22;4320;51.498;6.556;2022-11-02T03:09:07;14.40;1.00
8565;DHT22;4320;51.498;6.556;2022-11-02T03:11:35;14.40;1.00
8565;DHT22;4320;51.498;6.556;2022-11-02T03:21:42;14.40;1.00
8565;DHT22;4320;51.498;6.556;2022-11-02T03:24:29;14.30;1.00
8565;DHT22;4320;51.498;6.556;2022-11-02T03:27:17;14.30;1.00
8565;DHT22;4320;51.498;6.556;2022-11-02T03:30:12;14.30;1.00
8565;DHT22;4320;51.498;6.556;2022-11-02T03:32:50;14.20;1.00
8565;DHT22;4320;51.498;6.556;2022-11-02T03:35:43;14.30;1.00
8565;DHT22;4320;51.498;6.556;2022-11-02T03:38:17;14.30;1.00
8565;DHT22;4320;51.498;6.556;2022-11-02T03:40:46;14.20;1.00
8565;DHT22;4320;51.498;6.556;2022-11-02T03:43:13;14.20;1.00
8565;DHT22;4320;51.498;6.556;2022-11-02T03:45:49;14.20;1.00
8565;DHT22;4320;51.498;6.556;2022-11-02T03:48:17;14.20;1.00
8565;DHT22;4320;51.498;6.556;2022-11-02T03:50:45;14.20;1.00
8565;DHT22;4320;51.498;6.556;2022-11-02T03:53:17;14.20;1.00
8565;DHT22;4320;51.498;6.556;2022-11-02T03:55:50;14.20;1.00
8565;DHT22;4320;51.498;6.556;2022-11-02T03:58:16;14.20;1.00
8565;DHT22;4320;51.498;6.556;2022-11-02T04:00:57;14.20;1.00
8565;DHT22;4320;51.498;6.556;2022-11-02T04:03:24;14.20;1.00
8565;DHT22;4320;51.498;6.556;2022-11-02T04:05:49;14.20;1.00
8565;DHT22;4320;51.498;6.556;2022-11-02T04:08:21;14.20;1.00
8565;DHT22;4320;51.498;6.556;2022-11-02T04:10:53;14.20;1.00
8565;DHT22;4320;51.498;6.556;2022-11-02T04:13:37;14.20;1.00
8565;DHT22;4320;51.498;6.556;2022-11-02T04:16:22;14.20;1.00
8565;DHT22;4320;51.498;6.556;2022-11-02T04:18:48;14.20;1.00
8565;DHT22;4320;51.498;6.556;2022-11-02T04:21:32;14.20;1.00
8565;DHT22;4320;51.498;6.556;2022-11-02T04:23:58;14.10;1.00
8565;DHT22;4320;51.498;6.556;2022-11-02T04:26:42;14.10;1.00
8565;DHT22;4320;51.498;6.556;2022-11-02T04:29:08;14.10;1.00
8565;DHT22;4320;51.498;6.556;2022-11-02T04:31:33;14.10;1.00
8565;DHT22;4320;51.498;6.556;2022-11-02T04:33:59;14.10;1.00
8565;DHT22;4320;51.498;6.556;2022-11-02T04:36:28;14.10;1.00
8565;DHT22;4320;51.498;6.556;2022-11-02T04:38:54;14.10;1.00
8565;DHT22;4320;51.498;6.556;2022-11-02T04:41:22;14.10;1.00
8565;DHT22;4320;51.498;6.556;2022-11-02T04:44:06;14.10;1.00
8565;DHT22;4320;51.498;6.556;2022-11-02T04:46:34;14.10;1.00
8565;DHT22;4320;51.498;6.556;2022-11-02T04:49:00;14.10;1.00
8565;DHT22;4320;51.498;6.556;2022-11-02T04:51:28;14.00;1.00
8565;DHT22;4320;51.498;6.556;2022-11-02T04:53:54;14.00;1.00
8565;DHT22;4320;51.498;6.556;2022-11-02T04:56:21;14.00;1.00
8565;DHT22;4320;51.498;6.556;2022-11-02T04:58:51;14.00;1.00
8565;DHT22;4320;51.498;6.556;2022-11-02T05:01:18;13.90;1.00
8565;DHT22;4320;51.498;6.556;2022-11-02T05:03:46;14.00;1.00
8565;DHT22;4320;51.498;6.556;2022-11-02T05:06:13;14.00;1.00
8565;DHT22;4320;51.498;6.556;2022-11-02T05:08:39;14.00;1.00
8565;DHT22;4320;51.498;6.556;2022-11-02T05:11:05;14.00;1.00
8565;DHT22;4320;51.498;6.556;2022-11-02T05:13:31;14.00;1.00
8565;DHT22;4320;51.498;6.556;2022-11-02T05:15:58;13.90;1.00
8565;DHT22;4320;51.498;6.556;2022-11-02T05:18:24;13.90;1.00
8565;DHT22;4320;51.498;6.556;2022-11-02T05:20:53;13.90;1.00
8565;DHT22;4320;51.498;6.556;2022-11-02T05:23:19;13.90;1.00
8565;DHT22;4320;51.498;6.556;2022-11-02T05:28:18;13.80;1.00
8565;DHT22;4320;51.498;6.556;2022-11-02T05:30:43;13.80;1.00
8565;DHT22;4320;51.498;6.556;2022-11-02T05:33:09;13.80;1.00
8565;DHT22;4320;51.498;6.556;2022-11-02T05:35:35;13.80;1.00
8565;DHT22;4320;51.498;6.556;2022-11-02T05:38:01;13.80;1.00
8565;DHT22;4320;51.498;6.556;2022-11-02T05:40:26;13.80;1.00
8565;DHT22;4320;51.498;6.556;2022-11-02T05:43:01;13.80;1.00
8565;DHT22;4320;51.498;6.556;2022-11-02T05:45:26;13.80;1.00
8565;DHT22;4320;51.498;6.556;2022-11-02T05:47:52;13.70;1.00
8565;DHT22;4320;51.498;6.556;2022-11-02T05:50:18;13.70;1.00
8565;DHT22;4320;51.498;6.556;2022-11-02T05:52:44;13.70;1.00
8565;DHT22;4320;51.498;6.556;2022-11-02T05:55:10;13.70;1.00
8565;DHT22;4320;51.498;6.556;2022-11-02T05:57:36;13.70;1.00
8565;DHT22;4320;51.498;6.556;2022-11-02T06:00:03;13.70;1.00
8565;DHT22;4320;51.498;6.556;2022-11-02T06:02:29;13.70;1.00
8565;DHT22;4320;51.498;6.556;2022-11-02T06:04:55;13.60;1.00
8565;DHT22;4320;51.498;6.556;2022-11-02T06:07:21;13.60;1.00
8565;DHT22;4320;51.498;6.556;2022-11-02T06:09:46;13.60;1.00
8565;DHT22;4320;51.498;6.556;2022-11-02T06:12:12;13.60;1.00
8565;DHT22;4320;51.498;6.556;2022-11-02T06:14:38;13.70;1.00
8565;DHT22;4320;51.498;6.556;2022-11-02T06:17:03;13.60;1.00
8565;DHT22;4320;51.498;6.556;2022-11-02T06:19:29;13.70;1.00
8565;DHT22;4320;51.498;6.556;2022-11-02T06:21:55;13.70;1.00
8565;DHT22;4320;51.498;6.556;2022-11-02T06:24:21;13.80;1.00
8565;DHT22;4320;51.498;6.556;2022-11-02T06:26:46;13.80;1.00
8565;DHT22;4320;51.498;6.556;2022-11-02T06:29:13;13.70;1.00
8565;DHT22;4320;51.498;6.556;2022-11-02T06:31:39;13.80;1.00
8565;DHT22;4320;51.498;6.556;2022-11-02T06:34:05;13.80;1.00
8565;DHT22;4320;51.498;6.556;2022-11-02T06:36:31;13.80;1.00
8565;DHT22;4320;51.498;6.556;2022-11-02T06:38:56;13.80;1.00
8565;DHT22;4320;51.498;6.556;2022-11-02T06:41:22;13.80;1.00
8565;DHT22;4320;51.498;6.556;2022-11-02T06:43:47;13.80;1.00
8565;DHT22;4320;51.498;6.556;2022-11-02T06:46:13;13.80;1.00
8565;DHT22;4320;51.498;6.556;2022-11-02T06:48:39;13.90;1.00
8565;DHT22;4320;51.498;6.556;2022-11-02T06:51:05;13.90;1.00
8565;DHT22;4320;51.498;6.556;2022-11-02T06:53:31;13.80;1.00
8565;DHT22;4320;51.498;6.556;2022-11-02T06:55:58;13.90;1.00
8565;DHT22;4320;51.498;6.556;2022-11-02T06:58:25;13.90;1.00
8565;DHT22;4320;51.498;6.556;2022-11-02T07:00:59;13.90;1.00
8565;DHT22;4320;51.498;6.556;2022-11-02T07:03:25;13.90;1.00
8565;DHT22;4320;51.498;6.556;2022-11-02T07:05:52;13.90;1.00
8565;DHT22;4320;51.498;6.556;2022-11-02T07:08:18;13.90;1.00
8565;DHT22;4320;51.498;6.556;2022-11-02T07:10:44;13.90;1.00
8565;DHT22;4320;51.498;6.556;2022-11-02T07:13:09;13.90;1.00
8565;DHT22;4320;51.498;6.556;2022-11-02T07:15:35;14.00;1.00
8565;DHT22;4320;51.498;6.556;2022-11-02T07:18:01;14.00;1.00
8565;DHT22;4320;51.498;6.556;2022-11-02T07:20:27;14.00;1.00
8565;DHT22;4320;51.498;6.556;2022-11-02T07:22:56;14.10;1.00
8565;DHT22;4320;51.498;6.556;2022-11-02T07:25:23;14.30;1.00
8565;DHT22;4320;51.498;6.556;2022-11-02T07:27:49;14.20;1.00
8565;DHT22;4320;51.498;6.556;2022-11-02T07:30:15;14.20;1.00
8565;DHT22;4320;51.498;6.556;2022-11-02T07:32:42;14.40;1.00
8565;DHT22;4320;51.498;6.556;2022-11-02T07:35:09;14.60;1.00
8565;DHT22;4320;51.498;6.556;2022-11-02T07:37:36;15.00;1.00
8565;DHT22;4320;51.498;6.556;2022-11-02T07:40:02;15.20;1.00
8565;DHT22;4320;51.498;6.556;2022-11-02T07:42:28;15.30;1.00
8565;DHT22;4320;51.498;6.556;2022-11-02T07:44:54;15.60;1.00
8565;DHT22;4320;51.498;6.556;2022-11-02T07:47:19;15.70;1.00
8565;DHT22;4320;51.498;6.556;2022-11-02T07:49:45;15.90;1.00
8565;DHT22;4320;51.498;6.556;2022-11-02T07:52:10;16.20;1.00
8565;DHT22;4320;51.498;6.556;2022-11-02T07:54:36;16.30;1.00
8565;DHT22;4320;51.498;6.556;2022-11-02T07:57:02;16.70;1.00
8565;DHT22;4320;51.498;6.556;2022-11-02T07:59:27;16.90;1.00
8565;DHT22;4320;51.498;6.556;2022-11-02T08:01:53;16.90;1.00
8565;DHT22;4320;51.498;6.556;2022-11-02T08:04:19;17.10;1.00
8565;DHT22;4320;51.498;6.556;2022-11-02T08:06:44;17.50;1.00
8565;DHT22;4320;51.498;6.556;2022-11-02T08:09:10;17.80;1.00
8565;DHT22;4320;51.498;6.556;2022-11-02T08:11:36;18.10;1.00
8565;DHT22;4320;51.498;6.556;2022-11-02T08:14:01;18.10;1.00
8565;DHT22;4320;51.498;6.556;2022-11-02T08:16:27;18.20;1.00
8565;DHT22;4320;51.498;6.556;2022-11-02T08:18:53;17.90;1.00
8565;DHT22;4320;51.498;6.556;2022-11-02T08:21:19;17.50;1.00
8565;DHT22;4320;51.498;6.556;2022-11-02T08:23:44;17.00;1.00
8565;DHT22;4320;51.498;6.556;2022-11-02T08:26:10;16.60;1.00
8565;DHT22;4320;51.498;6.556;2022-11-02T08:28:36;16.10;1.00
8565;DHT22;4320;51.498;6.556;2022-11-02T08:31:05;15.90;1.00
8565;DHT22;4320;51.498;6.556;2022-11-02T08:33:32;15.60;1.00
8565;DHT22;4320;51.498;6.556;2022-11-02T08:36:02;15.50;1.00
8565;DHT22;4320;51.498;6.556;2022-11-02T08:38:29;15.50;1.00
8565;DHT22;4320;51.498;6.556;2022-11-02T08:40:54;15.30;1.00
8565;DHT22;4320;51.498;6.556;2022-11-02T08:43:20;15.30;1.00
8565;DHT22;4320;51.498;6.556;2022-11-02T08:45:46;15.30;1.00
8565;DHT22;4320;51.498;6.556;2022-11-02T08:48:11;15.40;1.00
8565;DHT22;4320;51.498;6.556;2022-11-02T08:50:37;15.20;1.00
8565;DHT22;4320;51.498;6.556;2022-11-02T08:53:03;15.40;1.00
8565;DHT22;4320;51.498;6.556;2022-11-02T08:55:29;15.40;1.00
8565;DHT22;4320;51.498;6.556;2022-11-02T08:57:57;15.50;1.00
8565;DHT22;4320;51.498;6.556;2022-11-02T09:00:25;15.60;1.00
8565;DHT22;4320;51.498;6.556;2022-11-02T09:03:11;15.60;1.00
8565;DHT22;4320;51.498;6.556;2022-11-02T09:05:40;15.80;1.00
8565;DHT22;4320;51.498;6.556;2022-11-02T09:08:09;15.70;1.00
8565;DHT22;4320;51.498;6.556;2022-11-02T09:10:36;15.80;1.00
8565;DHT22;4320;51.498;6.556;2022-11-02T09:13:04;15.80;1.00
8565;DHT22;4320;51.498;6.556;2022-11-02T09:15:32;15.90;1.00
8565;DHT22;4320;51.498;6.556;2022-11-02T09:17:58;15.80;1.00
8565;DHT22;4320;51.498;6.556;2022-11-02T09:20:24;16.30;1.00
8565;DHT22;4320;51.498;6.556;2022-11-02T09:22:50;16.10;1.00
8565;DHT22;4320;51.498;6.556;2022-11-02T09:25:15;17.20;1.00
8565;DHT22;4320;51.498;6.556;2022-11-02T09:27:42;17.30;1.00
8565;DHT22;4320;51.498;6.556;2022-11-02T09:30:09;16.80;1.00
8565;DHT22;4320;51.498;6.556;2022-11-02T09:32:35;16.30;1.00
8565;DHT22;4320;51.498;6.556;2022-11-02T09:35:03;16.60;1.00
8565;DHT22;4320;51.498;6.556;2022-11-02T09:37:29;17.60;1.00
8565;DHT22;4320;51.498;6.556;2022-11-02T09:39:54;18.40;1.00
8565;DHT22;4320;51.498;6.556;2022-11-02T09:42:41;19.20;1.00
8565;DHT22;4320;51.498;6.556;2022-11-02T09:45:15;19.70;1.00
8565;DHT22;4320;51.498;6.556;2022-11-02T09:47:48;20.60;1.00
8565;DHT22;4320;51.498;6.556;2022-11-02T09:50:24;20.40;1.00
8565;DHT22;4320;51.498;6.556;2022-11-02T09:52:57;20.60;1.00
8565;DHT22;4320;51.498;6.556;2022-11-02T09:55:29;21.00;1.00
8565;DHT22;4320;51.498;6.556;2022-11-02T09:58:06;21.00;1.00
8565;DHT22;4320;51.498;6.556;2022-11-02T10:00:38;20.80;1.00
8565;DHT22;4320;51.498;6.556;2022-11-02T10:05:57;19.40;1.00
8565;DHT22;4320;51.498;6.556;2022-11-02T10:14:17;19.00;1.00
8565;DHT22;4320;51.498;6.556;2022-11-02T10:19:28;18.90;1.00
8565;DHT22;4320;51.498;6.556;2022-11-02T10:21:57;18.80;1.00
8565;DHT22;4320;51.498;6.556;2022-11-02T10:24:40;18.50;1.00
8565;DHT22;4320;51.498;6.556;2022-11-02T10:27:26;18.10;1.00
8565;DHT22;4320;51.498;6.556;2022-11-02T10:30:02;18.20;1.00
8565;DHT22;4320;51.498;6.556;2022-11-02T10:32:30;18.20;1.00
8565;DHT22;4320;51.498;6.556;2022-11-02T10:34:57;18.30;1.00
8565;DHT22;4320;51.498;6.556;2022-11-02T10:37:37;18.40;1.00
8565;DHT22;4320;51.498;6.556;2022-11-02T10:51:07;18.20;1.00
8565;DHT22;4320;51.498;6.556;2022-11-02T10:53:45;18.10;1.00
8565;DHT22;4320;51.498;6.556;2022-11-02T10:56:31;18.10;1.00
8565;DHT22;4320;51.498;6.556;2022-11-02T11:02:02;18.30;1.00
8565;DHT22;4320;51.498;6.556;2022-11-02T11:04:30;18.80;1.00
8565;DHT22;4320;51.498;6.556;2022-11-02T11:06:57;19.10;1.00
8565;DHT22;4320;51.498;6.556;2022-11-02T11:09:51;19.20;1.00
8565;DHT22;4320;51.498;6.556;2022-11-02T11:12:22;19.30;1.00
8565;DHT22;4320;51.498;6.556;2022-11-02T11:14:52;18.60;1.00
8565;DHT22;4320;51.498;6.556;2022-11-02T11:17:39;18.40;1.00
8565;DHT22;4320;51.498;6.556;2022-11-02T11:20:27;18.10;1.00
8565;DHT22;4320;51.498;6.556;2022-11-02T11:25:32;18.30;1.00
8565;DHT22;4320;51.498;6.556;2022-11-02T11:27:58;18.30;1.00
8565;DHT22;4320;51.498;6.556;2022-11-02T11:30:31;18.30;1.00
8565;DHT22;4320;51.498;6.556;2022-11-02T11:32:58;18.10;1.00
8565;DHT22;4320;51.498;6.556;2022-11-02T11:35:28;17.80;1.00
8565;DHT22;4320;51.498;6.556;2022-11-02T11:38:07;17.70;1.00
8565;DHT22;4320;51.498;6.556;2022-11-02T11:40:36;17.80;1.00
8565;DHT22;4320;51.498;6.556;2022-11-02T11:43:07;18.00;1.00
8565;DHT22;4320;51.498;6.556;2022-11-02T11:45:34;18.10;1.00
8565;DHT22;4320;51.498;6.556;2022-11-02T11:50:45;17.60;1.00
8565;DHT22;4320;51.498;6.556;2022-11-02T11:53:24;17.50;1.00
8565;DHT22;4320;51.498;6.556;2022-11-02T11:55:52;17.30;1.00
8565;DHT22;4320;51.498;6.556;2022-11-02T12:00:43;16.90;1.00
8565;DHT22;4320;51.498;6.556;2022-11-02T12:03:10;16.70;1.00
8565;DHT22;4320;51.498;6.556;2022-11-02T12:14:25;16.70;1.00
8565;DHT22;4320;51.498;6.556;2022-11-02T12:25:16;16.30;1.00
8565;DHT22;4320;51.498;6.556;2022-11-02T12:30:19;16.50;1.00
8565;DHT22;4320;51.498;6.556;2022-11-02T12:46:01;16.60;1.00
8565;DHT22;4320;51.498;6.556;2022-11-02T12:48:43;16.70;1.00
8565;DHT22;4320;51.498;6.556;2022-11-02T12:51:17;16.40;1.00
8565;DHT22;4320;51.498;6.556;2022-11-02T12:54:00;16.50;1.00
8565;DHT22;4320;51.498;6.556;2022-11-02T12:56:45;16.50;1.00
8565;DHT22;4320;51.498;6.556;2022-11-02T12:59:26;16.70;1.00
8565;DHT22;4320;51.498;6.556;2022-11-02T13:02:02;16.80;1.00
8565;DHT22;4320;51.498;6.556;2022-11-02T13:04:59;16.70;1.00
8565;DHT22;4320;51.498;6.556;2022-11-02T13:07:35;16.60;1.00
8565;DHT22;4320;51.498;6.556;2022-11-02T13:10:05;16.70;1.00
8565;DHT22;4320;51.498;6.556;2022-11-02T13:12:35;16.60;1.00
8565;DHT22;4320;51.498;6.556;2022-11-02T13:15:02;16.60;1.00
8565;DHT22;4320;51.498;6.556;2022-11-02T13:17:48;16.60;1.00
8565;DHT22;4320;51.498;6.556;2022-11-02T13:20:17;16.60;1.00
8565;DHT22;4320;51.498;6.556;2022-11-02T13:26:10;16.70;1.00
8565;DHT22;4320;51.498;6.556;2022-11-02T13:31:47;16.50;1.00
8565;DHT22;4320;51.498;6.556;2022-11-02T13:37:25;16.60;1.00
8565;DHT22;4320;51.498;6.556;2022-11-02T13:39:58;16.50;1.00
8565;DHT22;4320;51.498;6.556;2022-11-02T13:45:06;16.60;1.00
8565;DHT22;4320;51.498;6.556;2022-11-02T13:48:37;16.60;1.00
8565;DHT22;4320;51.498;6.556;2022-11-02T13:50:48;16.50;1.00
8565;DHT22;4320;51.498;6.556;2022-11-02T13:53:22;16.50;1.00
8565;DHT22;4320;51.498;6.556;2022-11-02T13:55:56;16.60;1.00
8565;DHT22;4320;51.498;6.556;2022-11-02T13:58:36;16.50;1.00
8565;DHT22;4320;51.498;6.556;2022-11-02T14:01:07;16.60;1.00
8565;DHT22;4320;51.498;6.556;2022-11-02T14:03:49;16.60;1.00
8565;DHT22;4320;51.498;6.556;2022-11-02T14:06:20;16.70;1.00
8565;DHT22;4320;51.498;6.556;2022-11-02T14:08:47;16.70;1.00
8565;DHT22;4320;51.498;6.556;2022-11-02T14:16:59;16.70;1.00
8565;DHT22;4320;51.498;6.556;2022-11-02T14:22:14;16.70;1.00
8565;DHT22;4320;51.498;6.556;2022-11-02T14:29:50;16.70;1.00
8565;DHT22;4320;51.498;6.556;2022-11-02T14:42:52;16.50;1.00
8565;DHT22;4320;51.498;6.556;2022-11-02T14:48:25;16.40;1.00
8565;DHT22;4320;51.498;6.556;2022-11-02T14:51:06;16.40;1.00
8565;DHT22;4320;51.498;6.556;2022-11-02T14:53:36;16.40;1.00
8565;DHT22;4320;51.498;6.556;2022-11-02T14:56:02;16.40;1.00
8565;DHT22;4320;51.498;6.556;2022-11-02T14:58:40;16.40;1.00
8565;DHT22;4320;51.498;6.556;2022-11-02T15:01:13;16.30;1.00
8565;DHT22;4320;51.498;6.556;2022-11-02T15:03:41;16.30;1.00
8565;DHT22;4320;51.498;6.556;2022-11-02T15:08:57;16.10;1.00
8565;DHT22;4320;51.498;6.556;2022-11-02T15:19:41;15.90;1.00
8565;DHT22;4320;51.498;6.556;2022-11-02T15:27:43;15.70;1.00
8565;DHT22;4320;51.498;6.556;2022-11-02T15:30:14;15.70;1.00
8565;DHT22;4320;51.498;6.556;2022-11-02T15:32:46;15.70;1.00
8565;DHT22;4320;51.498;6.556;2022-11-02T15:35:20;15.60;1.00
8565;DHT22;4320;51.498;6.556;2022-11-02T15:37:47;15.60;1.00
8565;DHT22;4320;51.498;6.556;2022-11-02T15:40:21;15.60;1.00
8565;DHT22;4320;51.498;6.556;2022-11-02T15:54:02;15.50;1.00
8565;DHT22;4320;51.498;6.556;2022-11-02T15:57:00;15.40;1.00
8565;DHT22;4320;51.498;6.556;2022-11-02T15:59:53;15.40;1.00
8565;DHT22;4320;51.498;6.556;2022-11-02T16:02:26;15.30;1.00
8565;DHT22;4320;51.498;6.556;2022-11-02T16:04:56;15.30;1.00
8565;DHT22;4320;51.498;6.556;2022-11-02T16:07:24;15.20;1.00
8565;DHT22;4320;51.498;6.556;2022-11-02T16:09:50;15.20;1.00
8565;DHT22;4320;51.498;6.556;2022-11-02T16:12:20;15.20;1.00
8565;DHT22;4320;51.498;6.556;2022-11-02T16:15:04;15.10;1.00
8565;DHT22;4320;51.498;6.556;2022-11-02T16:17:34;15.10;1.00
8565;DHT22;4320;51.498;6.556;2022-11-02T16:20:13;15.00;1.00
8565;DHT22;4320;51.498;6.556;2022-11-02T16:25:34;14.90;1.00
8565;DHT22;4320;51.498;6.556;2022-11-02T16:30:38;14.80;1.00
8565;DHT22;4320;51.498;6.556;2022-11-02T16:33:04;14.80;1.00
8565;DHT22;4320;51.498;6.556;2022-11-02T16:35:31;14.80;1.00
8565;DHT22;4320;51.498;6.556;2022-11-02T16:37:57;14.80;1.00
8565;DHT22;4320;51.498;6.556;2022-11-02T16:40:23;14.80;1.00
8565;DHT22;4320;51.498;6.556;2022-11-02T16:42:51;14.80;1.00
8565;DHT22;4320;51.498;6.556;2022-11-02T16:45:37;14.70;1.00
8565;DHT22;4320;51.498;6.556;2022-11-02T16:48:27;14.70;1.00
8565;DHT22;4320;51.498;6.556;2022-11-02T16:51:16;14.70;1.00
8565;DHT22;4320;51.498;6.556;2022-11-02T16:53:43;14.60;1.00
8565;DHT22;4320;51.498;6.556;2022-11-02T16:56:25;14.50;1.00
8565;DHT22;4320;51.498;6.556;2022-11-02T16:58:59;14.60;1.00
8565;DHT22;4320;51.498;6.556;2022-11-02T17:01:28;14.50;1.00
8565;DHT22;4320;51.498;6.556;2022-11-02T17:03:58;14.50;1.00
8565;DHT22;4320;51.498;6.556;2022-11-02T17:06:24;14.50;1.00
8565;DHT22;4320;51.498;6.556;2022-11-02T17:08:52;14.50;1.00
8565;DHT22;4320;51.498;6.556;2022-11-02T17:11:19;14.40;1.00
8565;DHT22;4320;51.498;6.556;2022-11-02T17:13:52;14.40;1.00
8565;DHT22;4320;51.498;6.556;2022-11-02T17:16:19;14.40;1.00
8565;DHT22;4320;51.498;6.556;2022-11-02T17:18:45;14.30;1.00
8565;DHT22;4320;51.498;6.556;2022-11-02T17:21:21;14.30;1.00
8565;DHT22;4320;51.498;6.556;2022-11-02T17:23:47;14.30;1.00
8565;DHT22;4320;51.498;6.556;2022-11-02T17:28:51;14.20;1.00
8565;DHT22;4320;51.498;6.556;2022-11-02T17:31:26;14.20;1.00
8565;DHT22;4320;51.498;6.556;2022-11-02T17:33:53;14.20;1.00
8565;DHT22;4320;51.498;6.556;2022-11-02T17:36:19;14.20;1.00
8565;DHT22;4320;51.498;6.556;2022-11-02T17:38:45;14.10;1.00
8565;DHT22;4320;51.498;6.556;2022-11-02T17:41:12;14.10;1.00
8565;DHT22;4320;51.498;6.556;2022-11-02T17:43:58;14.10;1.00
8565;DHT22;4320;51.498;6.556;2022-11-02T17:46:23;14.10;1.00
8565;DHT22;4320;51.498;6.556;2022-11-02T17:48:49;14.10;1.00
8565;DHT22;4320;51.498;6.556;2022-11-02T17:51:15;14.00;1.00
8565;DHT22;4320;51.498;6.556;2022-11-02T17:53:42;14.00;1.00
8565;DHT22;4320;51.498;6.556;2022-11-02T17:56:10;14.00;1.00
8565;DHT22;4320;51.498;6.556;2022-11-02T17:58:36;13.90;1.00
8565;DHT22;4320;51.498;6.556;2022-11-02T18:01:03;13.90;1.00
8565;DHT22;4320;51.498;6.556;2022-11-02T18:03:30;13.90;1.00
8565;DHT22;4320;51.498;6.556;2022-11-02T18:05:56;13.90;1.00
8565;DHT22;4320;51.498;6.556;2022-11-02T18:08:21;13.90;1.00
8565;DHT22;4320;51.498;6.556;2022-11-02T18:10:50;13.90;1.00
8565;DHT22;4320;51.498;6.556;2022-11-02T18:13:21;13.80;1.00
8565;DHT22;4320;51.498;6.556;2022-11-02T18:15:47;13.80;1.00
8565;DHT22;4320;51.498;6.556;2022-11-02T18:18:13;13.80;1.00
8565;DHT22;4320;51.498;6.556;2022-11-02T18:20:39;13.80;1.00
8565;DHT22;4320;51.498;6.556;2022-11-02T18:23:05;13.80;1.00
8565;DHT22;4320;51.498;6.556;2022-11-02T18:25:32;13.80;1.00
8565;DHT22;4320;51.498;6.556;2022-11-02T18:27:59;13.80;1.00
8565;DHT22;4320;51.498;6.556;2022-11-02T18:30:27;13.80;1.00
8565;DHT22;4320;51.498;6.556;2022-11-02T18:32:54;13.80;1.00
8565;DHT22;4320;51.498;6.556;2022-11-02T18:35:21;13.80;1.00
8565;DHT22;4320;51.498;6.556;2022-11-02T18:37:48;13.80;1.00
8565;DHT22;4320;51.498;6.556;2022-11-02T18:40:16;13.80;1.00
8565;DHT22;4320;51.498;6.556;2022-11-02T18:42:43;13.80;1.00
8565;DHT22;4320;51.498;6.556;2022-11-02T18:45:10;13.80;1.00
8565;DHT22;4320;51.498;6.556;2022-11-02T18:47:37;13.80;1.00
8565;DHT22;4320;51.498;6.556;2022-11-02T18:50:04;13.70;1.00
8565;DHT22;4320;51.498;6.556;2022-11-02T18:52:31;13.70;1.00
8565;DHT22;4320;51.498;6.556;2022-11-02T18:54:56;13.70;1.00
8565;DHT22;4320;51.498;6.556;2022-11-02T18:57:22;13.70;1.00
8565;DHT22;4320;51.498;6.556;2022-11-02T18:59:48;13.70;1.00
8565;DHT22;4320;51.498;6.556;2022-11-02T19:02:14;13.70;1.00
8565;DHT22;4320;51.498;6.556;2022-11-02T19:04:40;13.70;1.00
8565;DHT22;4320;51.498;6.556;2022-11-02T19:07:06;13.70;1.00
8565;DHT22;4320;51.498;6.556;2022-11-02T19:09:50;13.70;1.00
8565;DHT22;4320;51.498;6.556;2022-11-02T19:12:21;13.70;1.00
8565;DHT22;4320;51.498;6.556;2022-11-02T19:14:49;13.70;1.00
8565;DHT22;4320;51.498;6.556;2022-11-02T19:17:16;13.70;1.00
8565;DHT22;4320;51.498;6.556;2022-11-02T19:19:42;13.70;1.00